createdAt,value
2022-09-28T00:06:47.423Z,98896.81
2022-09-28T00:16:52.506Z,98865.41
2022-09-28T00:26:56.325Z,98864.09
2022-09-28T00:36:58.494Z,98869.53
2022-09-28T00:47:18.286Z,98874.09
2022-09-28T00:57:22.977Z,98877.38
2022-09-28T01:07:25.964Z,98880.25
2022-09-28T01:18:22.369Z,98895.94
2022-09-28T01:28:27.360Z,98888.94
2022-09-28T01:38:34.539Z,98908.03
2022-09-28T01:48:43.762Z,98915.97
2022-09-28T01:58:51.926Z,98928.25
2022-09-28T02:08:59.546Z,98918.88
2022-09-28T02:19:04.388Z,98913.94
2022-09-28T02:29:06.085Z,98923.31
2022-09-28T02:39:17.998Z,98925.69
2022-09-28T02:49:50.019Z,98928.06
2022-09-28T03:00:00.351Z,98931.31
2022-09-28T03:10:08.860Z,98953.56
2022-09-28T03:20:12.064Z,98960.50
2022-09-28T03:30:13.566Z,98960.50
2022-09-28T03:40:15.611Z,98956.69
2022-09-28T03:50:17.481Z,98953.22
2022-09-28T04:00:19.415Z,98968.69
2022-09-28T04:10:21.068Z,98966.94
2022-09-28T04:20:22.847Z,98954.16
2022-09-28T04:30:24.950Z,98953.09
2022-09-28T04:40:26.598Z,98949.84
2022-09-28T04:50:28.410Z,98964.00
2022-09-28T05:00:33.181Z,98947.06
2022-09-28T05:10:42.251Z,98958.63
2022-09-28T05:20:43.944Z,98954.31
2022-09-28T05:30:45.686Z,98950.97
2022-09-28T05:40:48.928Z,98963.78
2022-09-28T05:50:52.501Z,98964.31
2022-09-28T06:00:56.409Z,98960.28
2022-09-28T06:11:03.013Z,98964.84
2022-09-28T06:21:05.976Z,98965.41
2022-09-28T06:31:08.195Z,98961.50
2022-09-28T06:41:11.899Z,98964.88
2022-09-28T06:51:14.666Z,98985.25
2022-09-28T07:01:17.362Z,98987.44
2022-09-28T07:11:27.354Z,98988.09
2022-09-28T07:21:30.646Z,98985.00
2022-09-28T07:31:33.817Z,98971.06
2022-09-28T07:41:36.260Z,98968.84
2022-09-28T07:51:37.883Z,98973.56
2022-09-28T08:01:39.634Z,98973.56
2022-09-28T08:11:43.995Z,98982.69
2022-09-28T08:21:45.625Z,98967.44
2022-09-28T08:31:48.609Z,98948.06
2022-09-28T08:42:00.123Z,98942.31
2022-09-28T08:52:17.240Z,98972.03
2022-09-28T09:02:34.183Z,98955.69
2022-09-28T09:13:00.831Z,98956.28
2022-09-28T09:23:15.437Z,98948.50
2022-09-28T09:33:39.773Z,98953.34
2022-09-28T09:44:06.014Z,98943.13
2022-09-28T09:54:20.147Z,98945.63
2022-09-28T10:04:27.981Z,98955.09
2022-09-28T10:14:31.697Z,98948.41
2022-09-28T10:24:45.291Z,98942.88
2022-09-28T10:34:50.276Z,98943.00
2022-09-28T10:44:59.499Z,98953.56
2022-09-28T10:55:01.565Z,98952.72
2022-09-28T11:05:06.684Z,98945.50
2022-09-28T11:15:27.390Z,98926.53
2022-09-28T11:25:31.418Z,98910.47
2022-09-28T11:36:00.243Z,98901.97
2022-09-28T11:46:10.850Z,98918.75
2022-09-28T11:56:27.778Z,98901.88
2022-09-28T12:06:41.040Z,98882.06
2022-09-28T12:17:08.484Z,98859.97
2022-09-28T12:27:18.245Z,98869.50
2022-09-28T12:37:41.814Z,98837.53
2022-09-28T12:47:57.419Z,98819.72
2022-09-28T12:58:03.322Z,98836.56
2022-09-28T13:08:42.472Z,98835.81
2022-09-28T13:18:53.374Z,98836.66
2022-09-28T13:29:04.460Z,98823.31
2022-09-28T13:39:37.371Z,98820.38
2022-09-28T13:49:40.360Z,98829.41
2022-09-28T13:59:50.955Z,98815.38
2022-09-28T14:10:21.127Z,98825.94
2022-09-28T14:20:27.981Z,98815.81
2022-09-28T14:30:41.866Z,98811.22
2022-09-28T14:41:10.531Z,98798.41
2022-09-28T14:51:42.459Z,98810.06
2022-09-28T15:01:57.854Z,98795.91
2022-09-28T15:12:21.745Z,98792.25
2022-09-28T15:22:24.970Z,98776.00
2022-09-28T15:32:31.844Z,98776.94
2022-09-28T15:42:37.072Z,98778.78
2022-09-28T15:53:17.534Z,98793.81
2022-09-28T16:03:21.832Z,98794.06
2022-09-28T16:13:25.066Z,98792.84
2022-09-28T16:23:34.443Z,98796.84
2022-09-28T16:33:54.227Z,98794.94
2022-09-28T16:44:15.354Z,98788.13
2022-09-28T16:54:43.186Z,98794.41
2022-09-28T17:04:47.688Z,98809.34
2022-09-28T17:14:49.577Z,98805.34
2022-09-28T17:24:51.543Z,98795.34
2022-09-28T17:35:06.467Z,98807.44
2022-09-28T17:45:10.555Z,98804.19
2022-09-28T17:55:16.307Z,98811.34
2022-09-28T18:05:19.682Z,98818.00
2022-09-28T18:15:22.734Z,98833.78
2022-09-28T18:25:24.450Z,98821.13
2022-09-28T18:35:26.115Z,98833.91
2022-09-28T18:45:27.866Z,98840.19
2022-09-28T18:55:30.577Z,98838.63
2022-09-28T19:05:33.805Z,98852.56
2022-09-28T19:15:35.511Z,98850.22
2022-09-28T19:25:38.616Z,98850.69
2022-09-28T19:35:41.634Z,98845.72
2022-09-28T19:45:43.367Z,98843.16
2022-09-28T19:55:51.167Z,98844.34
2022-09-28T20:06:01.810Z,98830.31
2022-09-28T20:16:09.314Z,98823.41
2022-09-28T20:26:11.921Z,98827.03
2022-09-28T20:36:16.398Z,98815.84
2022-09-28T20:46:19.437Z,98805.59
2022-09-28T20:56:22.298Z,98797.63
2022-09-28T21:06:27.820Z,98793.06
2022-09-28T21:16:31.695Z,98785.69
2022-09-28T21:26:33.633Z,98779.06
2022-09-28T21:36:35.297Z,98767.81
2022-09-28T21:46:39.068Z,98769.63
2022-09-28T21:56:40.815Z,98775.41
2022-09-28T22:06:42.859Z,98781.47
2022-09-28T22:16:47.941Z,98783.78
2022-09-28T22:26:55.642Z,98776.94
2022-09-28T22:37:03.268Z,98768.38
2022-09-28T22:47:07.489Z,98764.16
2022-09-28T22:57:09.100Z,98752.47
2022-09-28T23:07:10.733Z,98767.22
2022-09-28T23:17:12.298Z,98766.78
2022-09-28T23:27:15.908Z,98765.09
2022-09-28T23:37:17.630Z,98757.41
2022-09-28T23:47:19.713Z,98768.47
2022-09-28T23:57:21.298Z,98773.06
